Terminal Aerodrome Forecast
Issued by NWS

Home | Current Version | Previous Version | Text Only | Print | Product List | Glossary On
Versions: 1 2 3 4 5 6 7 8 9 10 11 12 13 14 15 16 17
000
FTUS43 KILX 061741
TAFBMI
TAF
KBMI 061741Z 0618/0718 19016G22KT P6SM SCT020 BKN250
      TEMPO 0618/0621 BKN020
     FM062100 19016G23KT P6SM VCSH SCT030 BKN250
      TEMPO 0621/0701 BKN030
     FM070200 20012KT P6SM VCTS SCT035CB BKN250
     FM070400 19010KT 5SM -TSRA BR BKN040CB
     FM070700 22009KT 5SM BR VCSH OVC025
     FM071200 01010KT 6SM BR VCSH BKN025=

USA.gov is the U.S. government's official web portal to all federal, state and local government web resources and services.